Time;durP1;ratioP1;P1;durP2;ratioP2;P2;SDS_P1;SDS_P2;PMS_P1;PMS_P2;Temp;Humidity;BMP_temperature;BMP_pressure;BME280_temperature;BME280_humidity;BME280_pressure;Samples;Min_cycle;Max_cycle;Signal;HPM_P1;HPM_P2
2021/12/30 00:01:19;;;;;;;31.90;6.00;;;8.60;99.90;;;;;;5091206;28;20070;-61
2021/12/30 00:03:46;;;;;;;37.28;6.50;;;8.50;99.90;;;;;;5072964;28;20040;-62
2021/12/30 00:06:12;;;;;;;30.60;6.65;;;8.50;99.90;;;;;;5093422;28;20122;-61
2021/12/30 00:08:38;;;;;;;35.50;7.32;;;8.50;99.90;;;;;;5088565;28;20050;-63
2021/12/30 00:11:06;;;;;;;49.10;9.35;;;8.50;99.90;;;;;;5094986;28;20032;-61
2021/12/30 00:13:32;;;;;;;43.65;6.57;;;8.50;99.90;;;;;;5094662;28;20039;-61
2021/12/30 00:15:58;;;;;;;42.28;7.22;;;8.50;99.90;;;;;;5094690;28;20071;-61
2021/12/30 00:18:25;;;;;;;44.60;6.85;;;8.50;99.90;;;;;;5090385;28;20063;-62
2021/12/30 00:20:51;;;;;;;47.72;7.38;;;8.50;99.90;;;;;;5112704;28;20416;-61
2021/12/30 00:23:16;;;;;;;40.40;7.00;;;8.40;99.90;;;;;;5078044;28;20039;-62
2021/12/30 00:25:44;;;;;;;48.78;8.35;;;8.50;99.90;;;;;;5094991;28;20036;-63
2021/12/30 00:28:16;;;;;;;44.95;7.88;;;8.50;99.90;;;;;;5112983;28;20089;-63
2021/12/30 00:30:43;;;;;;;56.47;8.50;;;8.50;99.90;;;;;;5094767;28;20043;-62
2021/12/30 00:33:09;;;;;;;47.65;7.15;;;8.50;99.90;;;;;;5077839;28;20047;-61
2021/12/30 00:35:35;;;;;;;55.00;8.40;;;8.50;99.90;;;;;;5094831;28;20048;-62
2021/12/30 00:38:02;;;;;;;44.92;8.52;;;8.60;99.90;;;;;;5094512;28;20043;-63
2021/12/30 00:40:28;;;;;;;43.10;8.13;;;8.50;99.90;;;;;;5090862;28;20494;-62
2021/12/30 00:42:54;;;;;;;48.30;8.10;;;8.50;99.90;;;;;;5082335;28;20134;-63
2021/12/30 00:45:20;;;;;;;37.20;7.28;;;8.50;99.90;;;;;;5094495;28;20115;-63
2021/12/30 00:47:46;;;;;;;43.95;9.18;;;8.60;99.90;;;;;;5094304;28;20043;-62
2021/12/30 00:50:12;;;;;;;48.30;8.18;;;8.50;99.90;;;;;;5073106;28;20036;-62
2021/12/30 00:52:38;;;;;;;52.63;9.10;;;8.50;99.90;;;;;;5090432;28;20504;-62
2021/12/30 00:55:05;;;;;;;50.22;7.82;;;8.50;99.90;;;;;;5079356;28;20039;-62
2021/12/30 00:57:31;;;;;;;45.05;7.53;;;8.50;99.90;;;;;;5092529;28;20047;-63
2021/12/30 00:59:57;;;;;;;58.55;8.07;;;8.50;99.90;;;;;;5092889;28;20046;-64
2021/12/30 01:02:23;;;;;;;51.70;9.75;;;8.50;99.90;;;;;;5092876;28;20500;-63
2021/12/30 01:04:48;;;;;;;49.10;8.77;;;8.50;99.90;;;;;;5111674;28;20123;-63
2021/12/30 01:07:14;;;;;;;56.60;8.75;;;8.50;99.90;;;;;;5091557;28;20054;-63
2021/12/30 01:09:40;;;;;;;45.40;9.30;;;8.50;99.90;;;;;;5075866;28;20043;-62
2021/12/30 01:12:07;;;;;;;49.95;8.15;;;8.40;99.90;;;;;;5093157;28;20051;-62
2021/12/30 01:14:35;;;;;;;40.53;7.68;;;8.40;99.90;;;;;;5092778;28;20042;-62
2021/12/30 01:17:14;;;;;;;39.80;7.55;;;8.40;99.90;;;;;;5093141;28;20043;-62
2021/12/30 01:22:06;;;;;;;49.08;9.00;;;8.30;99.90;;;;;;5093625;28;20525;-62
2021/12/30 01:24:32;;;;;;;45.88;8.27;;;8.30;99.90;;;;;;5072102;28;20035;-64
2021/12/30 01:26:58;;;;;;;65.60;9.98;;;8.20;99.90;;;;;;5093194;28;20408;-64
2021/12/30 01:29:26;;;;;;;46.22;7.55;;;8.20;99.90;;;;;;5077226;28;20040;-64
2021/12/30 01:31:52;;;;;;;51.15;8.18;;;8.20;99.90;;;;;;5093407;28;20089;-64
2021/12/30 01:34:18;;;;;;;51.53;9.15;;;8.20;99.90;;;;;;5078205;28;20431;-64
2021/12/30 01:36:43;;;;;;;53.88;8.95;;;8.20;99.90;;;;;;5050413;28;20034;-64
2021/12/30 01:39:09;;;;;;;50.10;9.23;;;8.20;99.90;;;;;;5054684;28;20054;-64
2021/12/30 01:41:35;;;;;;;44.95;8.55;;;8.20;99.90;;;;;;5076597;27;20031;-64
2021/12/30 01:44:01;;;;;;;46.55;7.20;;;8.10;99.90;;;;;;5102373;27;20040;-64
2021/12/30 01:46:41;;;;;;;43.17;7.70;;;8.10;99.90;;;;;;5070145;28;20043;-64
2021/12/30 01:49:08;;;;;;;44.55;7.63;;;8.20;99.90;;;;;;5081833;28;20035;-64
2021/12/30 01:51:34;;;;;;;44.17;9.25;;;8.10;99.90;;;;;;5078302;28;20047;-64
2021/12/30 01:53:59;;;;;;;47.03;7.47;;;8.10;99.90;;;;;;5083821;28;20096;-64
2021/12/30 01:56:26;;;;;;;43.55;7.65;;;8.10;99.90;;;;;;5075535;28;20036;-64
2021/12/30 01:58:54;;;;;;;44.22;7.10;;;8.00;99.90;;;;;;5064667;28;20048;-64
2021/12/30 02:01:20;;;;;;;45.60;7.47;;;8.00;99.90;;;;;;5077116;28;20039;-64
2021/12/30 02:03:46;;;;;;;46.55;7.00;;;8.00;99.90;;;;;;5079458;28;20039;-64
2021/12/30 02:06:12;;;;;;;51.15;6.90;;;8.00;99.90;;;;;;5059385;28;20150;-64
2021/12/30 02:08:38;;;;;;;43.58;6.80;;;8.10;99.90;;;;;;5060774;28;20043;-64
2021/12/30 02:11:04;;;;;;;43.80;7.32;;;8.00;99.90;;;;;;5061398;28;20042;-64
2021/12/30 02:13:30;;;;;;;44.92;7.22;;;8.00;99.90;;;;;;5081189;28;20066;-64
2021/12/30 02:16:00;;;;;;;43.50;8.70;;;8.00;99.90;;;;;;5060145;28;20044;-64
2021/12/30 02:18:27;;;;;;;44.85;7.03;;;8.00;99.90;;;;;;5081914;28;20501;-64
2021/12/30 02:21:01;;;;;;;39.33;7.82;;;8.00;99.90;;;;;;5094077;28;20058;-64
2021/12/30 02:23:30;;;;;;;44.17;6.80;;;8.00;99.90;;;;;;5075312;28;20072;-64
2021/12/30 02:25:58;;;;;;;36.70;6.78;;;8.00;99.90;;;;;;5073630;28;20256;-64
2021/12/30 02:28:28;;;;;;;38.50;5.90;;;8.00;99.90;;;;;;5098067;28;20078;-65
2021/12/30 02:30:56;;;;;;;45.47;6.57;;;8.00;99.90;;;;;;5062078;28;20043;-64
2021/12/30 02:33:22;;;;;;;52.85;7.70;;;8.00;99.90;;;;;;5079171;27;20339;-64
2021/12/30 02:35:50;;;;;;;52.75;7.80;;;8.00;99.90;;;;;;5077384;28;20073;-64
2021/12/30 02:38:17;;;;;;;42.05;7.05;;;8.00;99.90;;;;;;5095046;28;20036;-64
2021/12/30 02:40:46;;;;;;;43.55;7.70;;;8.00;99.90;;;;;;5077625;28;20036;-64
2021/12/30 02:43:16;;;;;;;48.63;7.60;;;8.00;99.90;;;;;;5078991;28;20039;-64
2021/12/30 02:45:43;;;;;;;51.25;8.57;;;8.00;99.90;;;;;;5058328;28;20043;-65
2021/12/30 02:48:24;;;;;;;46.05;8.63;;;8.00;99.90;;;;;;5053327;28;21473;-64
2021/12/30 02:50:52;;;;;;;41.60;8.48;;;8.00;99.90;;;;;;5072077;28;20257;-65
2021/12/30 02:53:19;;;;;;;55.22;9.65;;;8.00;99.90;;;;;;5082240;28;20108;-64
2021/12/30 02:55:45;;;;;;;49.47;8.43;;;8.10;99.90;;;;;;5043306;28;20044;-65
2021/12/30 02:58:12;;;;;;;43.78;8.65;;;8.10;99.90;;;;;;5062727;28;20078;-64
2021/12/30 03:00:38;;;;;;;42.83;8.25;;;8.10;99.90;;;;;;5077945;28;20485;-65
2021/12/30 03:03:05;;;;;;;66.95;9.73;;;8.10;99.90;;;;;;5062954;28;20164;-65
2021/12/30 03:05:31;;;;;;;48.35;10.45;;;8.10;99.90;;;;;;5074055;28;20039;-64
2021/12/30 03:07:57;;;;;;;57.25;10.07;;;8.10;99.90;;;;;;5074940;28;20046;-65
2021/12/30 03:10:27;;;;;;;48.85;8.77;;;8.00;99.90;;;;;;5075354;28;20048;-64
2021/12/30 03:12:57;;;;;;;41.92;8.35;;;8.10;99.90;;;;;;5078428;28;20321;-65
2021/12/30 03:15:26;;;;;;;57.30;10.82;;;8.10;99.90;;;;;;5092640;28;20453;-65
2021/12/30 03:17:52;;;;;;;62.20;11.30;;;8.10;99.90;;;;;;5074850;28;20040;-64
2021/12/30 03:20:18;;;;;;;64.55;11.10;;;8.20;99.90;;;;;;5058282;28;20122;-64
2021/12/30 03:22:44;;;;;;;67.00;11.95;;;8.20;99.90;;;;;;5074654;28;20077;-64
2021/12/30 03:25:13;;;;;;;51.90;11.77;;;8.30;99.90;;;;;;5075891;28;20243;-64
2021/12/30 03:27:39;;;;;;;66.25;12.43;;;8.20;99.90;;;;;;5079580;28;20127;-64
2021/12/30 03:30:08;;;;;;;54.20;11.77;;;8.30;99.90;;;;;;5073616;28;20756;-65
2021/12/30 03:32:34;;;;;;;52.50;11.93;;;8.20;99.90;;;;;;5093443;28;20474;-64
2021/12/30 03:35:00;;;;;;;56.03;12.57;;;8.20;99.90;;;;;;5096011;28;20170;-65
2021/12/30 03:37:26;;;;;;;62.83;13.52;;;8.20;99.90;;;;;;5062661;28;20130;-64
2021/12/30 03:39:52;;;;;;;57.78;13.32;;;8.20;99.90;;;;;;5066499;28;20047;-65
2021/12/30 03:42:17;;;;;;;63.75;12.77;;;8.20;99.90;;;;;;5077937;28;20051;-64
2021/12/30 03:44:46;;;;;;;61.20;13.73;;;8.20;99.90;;;;;;5083923;28;20035;-65
2021/12/30 03:47:16;;;;;;;61.65;12.63;;;8.20;99.90;;;;;;5098947;28;20071;-64
2021/12/30 03:49:44;;;;;;;63.20;13.35;;;8.10;99.90;;;;;;5080269;28;20104;-64
2021/12/30 03:52:19;;;;;;;58.10;13.00;;;8.10;99.90;;;;;;5064674;28;20043;-65
2021/12/30 03:54:45;;;;;;;59.00;12.48;;;8.20;99.90;;;;;;5081305;28;20864;-65
2021/12/30 03:57:11;;;;;;;56.80;12.00;;;8.20;99.90;;;;;;5059905;28;20515;-65
2021/12/30 03:59:37;;;;;;;59.10;12.77;;;8.20;99.90;;;;;;5078283;28;20516;-65
2021/12/30 04:02:04;;;;;;;55.03;11.55;;;8.20;99.90;;;;;;5082896;28;20040;-65
2021/12/30 04:04:30;;;;;;;59.47;12.07;;;8.20;99.90;;;;;;5067330;28;20118;-65
2021/12/30 04:06:56;;;;;;;60.97;11.55;;;8.20;99.90;;;;;;5079004;28;21082;-65
2021/12/30 04:09:21;;;;;;;49.38;11.25;;;8.20;99.90;;;;;;5063282;28;20051;-65
2021/12/30 04:11:47;;;;;;;56.72;11.75;;;8.20;99.90;;;;;;5055008;28;20048;-65
2021/12/30 04:14:13;;;;;;;61.47;11.50;;;8.20;99.90;;;;;;5067039;28;20046;-64
2021/12/30 04:16:39;;;;;;;54.47;12.27;;;8.20;99.90;;;;;;5076998;28;20054;-65
2021/12/30 04:19:05;;;;;;;63.78;12.15;;;8.30;99.90;;;;;;5086324;28;20043;-64
2021/12/30 04:21:32;;;;;;;65.85;12.20;;;8.30;99.90;;;;;;5074128;28;20119;-64
2021/12/30 04:23:59;;;;;;;69.80;12.50;;;8.30;99.90;;;;;;5081601;28;20427;-64
2021/12/30 04:26:24;;;;;;;60.83;12.95;;;8.40;99.90;;;;;;5080694;28;20385;-64
2021/12/30 04:28:50;;;;;;;66.50;13.55;;;8.40;99.90;;;;;;5062744;28;20048;-64
2021/12/30 04:31:16;;;;;;;62.92;12.23;;;8.40;99.90;;;;;;5077943;28;20040;-64
2021/12/30 04:33:42;;;;;;;64.15;12.68;;;8.50;99.90;;;;;;5077365;28;20058;-64
2021/12/30 04:36:08;;;;;;;76.95;13.80;;;8.50;99.90;;;;;;5102312;28;20506;-65
2021/12/30 04:38:35;;;;;;;78.53;15.13;;;8.60;99.90;;;;;;5066266;28;20048;-64
2021/12/30 04:41:04;;;;;;;75.13;17.50;;;8.60;99.90;;;;;;5075040;28;20039;-65
2021/12/30 04:43:30;;;;;;;74.65;16.15;;;8.70;99.90;;;;;;5086008;28;20485;-64
2021/12/30 04:45:58;;;;;;;79.57;15.63;;;8.70;99.90;;;;;;5077233;28;20329;-65
2021/12/30 04:48:24;;;;;;;81.28;15.82;;;8.80;99.90;;;;;;5080656;28;20062;-65
2021/12/30 04:50:50;;;;;;;90.20;17.67;;;8.90;99.90;;;;;;5078258;27;20120;-64
2021/12/30 04:53:17;;;;;;;91.40;18.95;;;8.90;99.90;;;;;;5080621;28;20043;-64
2021/12/30 04:55:43;;;;;;;86.13;18.35;;;9.00;99.90;;;;;;5062257;28;20245;-64
2021/12/30 04:58:09;;;;;;;84.50;17.67;;;9.10;99.90;;;;;;5081554;28;20089;-64
2021/12/30 05:00:35;;;;;;;116.97;21.00;;;9.10;99.90;;;;;;5080439;28;20054;-64
2021/12/30 05:03:12;;;;;;;94.00;21.73;;;9.20;99.90;;;;;;5078216;28;20040;-65
2021/12/30 05:05:42;;;;;;;100.85;21.67;;;9.20;99.90;;;;;;5064072;28;20043;-65
2021/12/30 05:08:09;;;;;;;113.95;22.65;;;9.30;99.90;;;;;;5063144;28;22252;-65
2021/12/30 05:10:35;;;;;;;103.30;25.08;;;9.40;99.90;;;;;;5073571;22;20080;-60
2021/12/30 05:13:02;;;;;;;108.85;25.10;;;9.40;99.90;;;;;;5055857;28;20041;-61
2021/12/30 05:15:28;;;;;;;100.45;24.27;;;9.50;99.90;;;;;;5058699;28;20517;-62
2021/12/30 05:17:54;;;;;;;103.15;24.25;;;9.50;99.90;;;;;;5055943;28;20037;-61
2021/12/30 05:20:20;;;;;;;98.18;25.30;;;9.60;99.90;;;;;;5056834;28;20169;-59
2021/12/30 05:22:46;;;;;;;95.53;24.75;;;9.60;99.90;;;;;;5055991;28;20456;-58
2021/12/30 05:25:14;;;;;;;95.35;25.13;;;9.60;99.90;;;;;;5059678;28;20514;-60
2021/12/30 05:27:41;;;;;;;72.10;23.58;;;9.70;99.90;;;;;;5056318;28;20498;-58
2021/12/30 05:30:09;;;;;;;86.43;23.92;;;9.70;99.90;;;;;;5054141;28;20078;-60
2021/12/30 05:32:35;;;;;;;96.07;23.98;;;9.80;99.90;;;;;;5040706;28;20055;-60
2021/12/30 05:35:03;;;;;;;91.15;24.05;;;9.80;99.90;;;;;;5037685;28;20777;-57
2021/12/30 05:37:29;;;;;;;84.07;24.98;;;9.80;99.90;;;;;;5036743;28;20478;-59
2021/12/30 05:39:54;;;;;;;86.60;24.10;;;9.90;99.90;;;;;;5059164;28;20083;-60
2021/12/30 05:42:22;;;;;;;83.90;24.77;;;9.90;99.90;;;;;;5058839;28;20556;-60
2021/12/30 05:44:53;;;;;;;78.57;23.17;;;9.90;99.90;;;;;;5034562;28;20049;-60
2021/12/30 05:47:19;;;;;;;88.57;23.52;;;9.90;99.90;;;;;;5057957;28;20028;-60
2021/12/30 05:49:45;;;;;;;87.93;23.63;;;10.00;99.90;;;;;;5053549;28;20417;-59
2021/12/30 05:52:11;;;;;;;94.95;26.25;;;10.00;99.90;;;;;;5055833;28;20059;-63
2021/12/30 05:54:37;;;;;;;89.15;25.83;;;10.00;99.90;;;;;;5054111;28;20572;-63
2021/12/30 05:57:03;;;;;;;78.05;25.27;;;9.90;99.90;;;;;;5030271;28;20048;-59
2021/12/30 05:59:29;;;;;;;83.85;24.80;;;9.90;99.90;;;;;;5058295;28;20148;-59
2021/12/30 06:01:54;;;;;;;89.32;27.73;;;10.00;99.90;;;;;;5040116;28;20144;-59
2021/12/30 06:04:20;;;;;;;86.45;26.25;;;10.00;99.90;;;;;;5056905;28;20048;-60
2021/12/30 06:06:46;;;;;;;80.95;25.90;;;10.00;99.90;;;;;;5041175;28;20047;-61
2021/12/30 06:09:12;;;;;;;96.45;27.60;;;10.00;99.90;;;;;;5053334;28;20558;-60
2021/12/30 06:11:37;;;;;;;95.07;26.83;;;10.00;99.90;;;;;;5051801;28;20127;-59
2021/12/30 06:14:03;;;;;;;92.97;26.60;;;10.00;99.90;;;;;;5033102;28;20447;-62
2021/12/30 06:16:29;;;;;;;88.20;28.00;;;10.00;99.90;;;;;;5056671;28;20047;-62
2021/12/30 06:18:57;;;;;;;95.70;27.63;;;10.10;99.90;;;;;;5056127;28;20036;-58
2021/12/30 06:21:23;;;;;;;91.32;27.00;;;10.10;99.90;;;;;;5040362;28;20045;-61
2021/12/30 06:23:48;;;;;;;105.65;31.48;;;10.10;99.90;;;;;;5055441;28;20043;-61
2021/12/30 06:26:14;;;;;;;97.93;27.15;;;10.10;99.90;;;;;;5036262;28;20075;-63
2021/12/30 06:28:40;;;;;;;88.22;26.75;;;10.10;99.90;;;;;;5017317;28;20135;-59
2021/12/30 06:31:06;;;;;;;92.97;27.75;;;10.20;99.90;;;;;;5047235;28;20043;-60
2021/12/30 06:33:32;;;;;;;81.82;24.10;;;10.20;99.90;;;;;;5056883;28;20047;-60
2021/12/30 06:35:58;;;;;;;76.07;24.35;;;10.20;99.90;;;;;;5039607;28;20037;-61
2021/12/30 06:38:24;;;;;;;67.18;24.30;;;10.20;99.90;;;;;;5035376;28;20540;-60
2021/12/30 06:40:49;;;;;;;71.22;22.92;;;10.20;99.90;;;;;;5024803;28;20040;-62
2021/12/30 06:43:15;;;;;;;63.75;21.95;;;10.20;99.90;;;;;;5023534;28;20472;-62
2021/12/30 06:45:44;;;;;;;66.13;22.88;;;10.20;99.90;;;;;;5044377;28;20078;-61
2021/12/30 06:48:13;;;;;;;60.92;20.98;;;10.20;99.90;;;;;;5053366;28;20044;-58
2021/12/30 06:50:40;;;;;;;57.95;20.92;;;10.20;99.90;;;;;;5040733;28;20127;-60
2021/12/30 06:53:05;;;;;;;53.20;18.75;;;10.20;99.90;;;;;;5037726;28;20052;-63
2021/12/30 06:55:31;;;;;;;54.13;19.25;;;10.20;99.90;;;;;;5035652;28;20052;-58
2021/12/30 06:57:57;;;;;;;43.72;17.90;;;10.20;99.90;;;;;;5062564;28;20071;-59
2021/12/30 07:00:23;;;;;;;47.03;17.60;;;10.20;99.90;;;;;;5052706;28;20036;-60
2021/12/30 07:02:49;;;;;;;51.00;18.08;;;10.20;99.90;;;;;;5055387;28;20113;-61
2021/12/30 07:05:14;;;;;;;42.70;15.65;;;10.20;99.90;;;;;;5054694;28;20036;-62
2021/12/30 07:07:43;;;;;;;37.40;14.82;;;10.20;99.90;;;;;;5036291;28;20060;-60
2021/12/30 07:10:10;;;;;;;36.63;14.93;;;10.10;99.90;;;;;;5033192;28;20429;-59
2021/12/30 07:12:37;;;;;;;38.58;15.07;;;10.20;99.90;;;;;;5058735;28;20533;-60
2021/12/30 07:15:07;;;;;;;40.63;14.45;;;10.10;99.90;;;;;;5027511;28;20437;-61
2021/12/30 07:17:36;;;;;;;29.38;13.15;;;10.10;99.90;;;;;;5044199;28;20119;-61
2021/12/30 07:20:03;;;;;;;30.80;13.95;;;10.10;99.90;;;;;;5066731;28;20119;-61
2021/12/30 07:22:29;;;;;;;34.25;13.10;;;10.10;99.90;;;;;;5038514;28;20037;-61
2021/12/30 07:24:56;;;;;;;29.83;14.65;;;10.10;99.90;;;;;;5056515;28;20064;-61
2021/12/30 07:27:22;;;;;;;33.00;14.05;;;10.20;99.90;;;;;;5024688;28;20567;-61
2021/12/30 07:29:47;;;;;;;30.92;12.25;;;10.20;99.90;;;;;;5058136;28;20505;-58
2021/12/30 07:32:13;;;;;;;28.55;13.55;;;10.20;99.90;;;;;;5052550;28;20234;-62
2021/12/30 07:34:39;;;;;;;29.42;13.30;;;10.20;99.90;;;;;;5055536;28;20056;-61
2021/12/30 07:37:05;;;;;;;26.13;12.07;;;10.30;99.90;;;;;;5053626;28;20044;-61
2021/12/30 07:39:30;;;;;;;29.42;12.68;;;10.30;99.90;;;;;;5052430;28;20045;-59
2021/12/30 07:41:56;;;;;;;29.67;12.80;;;10.30;99.90;;;;;;5050043;28;20467;-59
2021/12/30 07:44:22;;;;;;;24.65;11.80;;;10.40;99.90;;;;;;5056600;28;20430;-60
2021/12/30 07:46:48;;;;;;;25.30;11.20;;;10.40;99.90;;;;;;5055953;28;20105;-61
2021/12/30 07:49:14;;;;;;;26.25;11.68;;;10.40;99.90;;;;;;5065245;28;20040;-58
2021/12/30 07:51:39;;;;;;;23.38;11.32;;;10.40;99.90;;;;;;5039444;28;20402;-62
2021/12/30 07:54:05;;;;;;;22.27;11.82;;;10.50;99.90;;;;;;5038940;28;20036;-60
2021/12/30 07:56:31;;;;;;;28.83;13.13;;;10.50;99.90;;;;;;5054300;28;20478;-60
2021/12/30 07:58:58;;;;;;;25.63;12.05;;;10.50;99.90;;;;;;5049033;28;20048;-58
2021/12/30 08:01:24;;;;;;;25.45;13.48;;;10.50;99.90;;;;;;5060644;28;20079;-59
2021/12/30 08:03:50;;;;;;;26.63;12.80;;;10.50;99.90;;;;;;5032741;28;20156;-61
2021/12/30 08:06:16;;;;;;;25.25;13.18;;;10.50;99.90;;;;;;5041254;28;20064;-60
2021/12/30 08:08:41;;;;;;;26.30;13.48;;;10.60;99.90;;;;;;5059134;28;20032;-61
2021/12/30 08:11:07;;;;;;;28.00;14.43;;;10.60;99.90;;;;;;5052237;28;20134;-62
2021/12/30 08:13:33;;;;;;;28.35;14.40;;;10.60;99.90;;;;;;5042505;28;20075;-62
2021/12/30 08:15:59;;;;;;;30.05;15.15;;;10.60;99.90;;;;;;5031950;28;20533;-61
2021/12/30 08:18:25;;;;;;;36.28;15.10;;;10.60;99.90;;;;;;5060209;28;20490;-61
2021/12/30 08:20:52;;;;;;;33.67;15.25;;;10.60;99.90;;;;;;5056839;28;20608;-62
2021/12/30 08:23:18;;;;;;;25.05;14.18;;;10.60;99.90;;;;;;5026584;28;20068;-60
2021/12/30 08:25:49;;;;;;;35.90;15.93;;;10.60;99.90;;;;;;5031657;28;20116;-60
2021/12/30 08:28:16;;;;;;;28.95;13.80;;;10.70;99.90;;;;;;5034315;28;20053;-62
2021/12/30 08:30:42;;;;;;;33.05;13.18;;;10.70;99.90;;;;;;5055707;28;20040;-63
2021/12/30 08:33:08;;;;;;;28.70;12.82;;;10.70;99.90;;;;;;5051370;28;20255;-61
2021/12/30 08:35:33;;;;;;;27.45;11.70;;;10.70;99.90;;;;;;5055260;28;20033;-61
2021/12/30 08:38:00;;;;;;;24.15;9.48;;;10.80;99.90;;;;;;5055489;28;20116;-62
2021/12/30 08:40:26;;;;;;;24.05;9.18;;;10.80;99.90;;;;;;5041879;28;20098;-62
2021/12/30 08:42:52;;;;;;;27.23;8.55;;;10.90;99.90;;;;;;5064503;28;20025;-61
2021/12/30 08:45:19;;;;;;;28.17;8.85;;;10.90;99.90;;;;;;5038383;28;20045;-61
2021/12/30 08:47:45;;;;;;;26.73;8.70;;;11.00;99.90;;;;;;5051524;28;20493;-61
2021/12/30 08:50:13;;;;;;;22.20;7.28;;;11.00;99.90;;;;;;5059031;28;20131;-61
2021/12/30 08:52:41;;;;;;;22.60;6.53;;;11.00;99.90;;;;;;5050195;28;20071;-61
2021/12/30 08:55:07;;;;;;;29.77;7.80;;;11.10;99.90;;;;;;5041067;28;20060;-62
2021/12/30 08:57:37;;;;;;;24.10;6.35;;;11.20;99.90;;;;;;5047543;28;20029;-64
2021/12/30 09:00:07;;;;;;;24.58;6.50;;;11.20;99.90;;;;;;5051788;28;20043;-63
2021/12/30 09:02:33;;;;;;;30.40;7.47;;;11.20;99.90;;;;;;5059718;28;20029;-63
2021/12/30 09:04:59;;;;;;;32.17;5.93;;;11.30;99.90;;;;;;5049402;28;20475;-62
2021/12/30 09:07:24;;;;;;;26.90;5.63;;;11.30;99.90;;;;;;5054896;28;20043;-62
2021/12/30 09:09:50;;;;;;;22.27;5.03;;;11.30;99.90;;;;;;5053577;28;20090;-62
2021/12/30 09:12:18;;;;;;;20.98;6.10;;;11.30;99.90;;;;;;5061366;28;20040;-61
2021/12/30 09:14:43;;;;;;;23.45;5.15;;;11.30;99.90;;;;;;5046284;28;20132;-62
2021/12/30 09:17:09;;;;;;;20.13;5.25;;;11.30;99.90;;;;;;5034645;28;20578;-61
2021/12/30 09:19:35;;;;;;;20.02;5.28;;;11.40;99.90;;;;;;5050150;28;20059;-62
2021/12/30 09:22:01;;;;;;;20.38;4.68;;;11.40;99.90;;;;;;5038824;28;20490;-61
2021/12/30 09:24:27;;;;;;;30.75;5.45;;;11.40;99.90;;;;;;5041727;28;20075;-62
2021/12/30 09:26:52;;;;;;;22.83;5.90;;;11.40;99.90;;;;;;5059860;28;20037;-61
2021/12/30 09:29:19;;;;;;;25.40;5.00;;;11.40;99.90;;;;;;5055527;28;20133;-61
2021/12/30 09:31:48;;;;;;;19.63;4.05;;;11.40;99.90;;;;;;5043515;28;20044;-62
2021/12/30 09:34:14;;;;;;;26.50;5.32;;;11.40;99.90;;;;;;5059335;28;20047;-63
2021/12/30 09:36:40;;;;;;;22.90;4.53;;;11.40;99.90;;;;;;5066761;28;20094;-63
2021/12/30 09:39:11;;;;;;;23.55;4.88;;;11.50;99.90;;;;;;5057176;28;20095;-62
2021/12/30 09:41:39;;;;;;;25.23;5.13;;;11.50;99.90;;;;;;5065649;28;20036;-64
2021/12/30 09:44:09;;;;;;;21.80;4.72;;;11.50;99.90;;;;;;5036616;28;20051;-63
2021/12/30 09:46:35;;;;;;;24.27;5.53;;;11.50;99.90;;;;;;5065689;28;20355;-63
2021/12/30 09:49:02;;;;;;;25.92;4.80;;;11.50;99.90;;;;;;5059171;28;20116;-63
2021/12/30 09:51:28;;;;;;;26.65;4.75;;;11.50;99.90;;;;;;5058553;28;20462;-63
2021/12/30 09:53:54;;;;;;;21.83;4.13;;;11.50;99.90;;;;;;5066268;28;20499;-61
2021/12/30 09:56:20;;;;;;;21.70;4.60;;;11.50;99.90;;;;;;5056732;28;20055;-63
2021/12/30 09:58:46;;;;;;;20.05;4.65;;;11.50;99.90;;;;;;5053218;28;20170;-63
2021/12/30 10:01:12;;;;;;;25.30;5.43;;;11.50;99.90;;;;;;5042618;28;20056;-61
2021/12/30 10:03:38;;;;;;;28.20;4.72;;;11.60;99.90;;;;;;5039935;28;20215;-62
2021/12/30 10:06:09;;;;;;;19.15;4.40;;;11.60;99.90;;;;;;5064220;28;20135;-64
2021/12/30 10:08:40;;;;;;;23.15;4.57;;;11.60;99.90;;;;;;5049109;28;20052;-64
2021/12/30 10:11:14;;;;;;;21.35;3.97;;;11.60;99.90;;;;;;5027237;28;20098;-62
2021/12/30 10:13:51;;;;;;;21.63;4.25;;;11.60;99.90;;;;;;5030143;28;20071;-64
2021/12/30 10:16:17;;;;;;;27.65;5.18;;;11.70;99.90;;;;;;5048507;28;21612;-63
2021/12/30 10:18:58;;;;;;;23.50;5.25;;;11.70;99.90;;;;;;5031279;28;20052;-63
2021/12/30 10:21:36;;;;;;;24.88;5.05;;;11.70;99.90;;;;;;5050281;28;20066;-64
2021/12/30 10:24:06;;;;;;;27.52;5.13;;;11.70;99.90;;;;;;5027252;28;20087;-64
2021/12/30 10:26:54;;;;;;;26.55;5.47;;;11.70;99.90;;;;;;5050238;28;20055;-62
2021/12/30 10:29:20;;;;;;;27.05;5.22;;;11.70;99.90;;;;;;5027531;28;20533;-61
2021/12/30 10:31:47;;;;;;;26.95;5.70;;;11.70;99.90;;;;;;5051872;28;20824;-62
2021/12/30 10:34:16;;;;;;;25.05;5.20;;;11.70;99.90;;;;;;5057136;28;20051;-62
2021/12/30 10:36:44;;;;;;;34.90;7.57;;;11.80;99.90;;;;;;5059249;28;20048;-62
2021/12/30 10:39:45;;;;;;;24.27;5.78;;;11.70;99.90;;;;;;5056457;28;20398;-62
2021/12/30 10:42:21;;;;;;;30.92;5.95;;;11.80;99.90;;;;;;4962416;28;20050;-61
2021/12/30 10:44:51;;;;;;;37.58;6.32;;;11.80;99.90;;;;;;5021678;28;20037;-63
2021/12/30 10:47:18;;;;;;;28.15;6.40;;;11.80;99.90;;;;;;5039120;28;20044;-61
2021/12/30 10:49:59;;;;;;;33.17;6.32;;;11.80;99.90;;;;;;5054932;28;20074;-61
2021/12/30 10:52:26;;;;;;;32.70;6.88;;;11.80;99.90;;;;;;5046740;28;20051;-63
2021/12/30 10:54:53;;;;;;;33.90;9.77;;;11.80;99.90;;;;;;5044472;28;20083;-60
2021/12/30 10:57:18;;;;;;;39.20;7.35;;;11.80;99.90;;;;;;5057132;28;20143;-61
2021/12/30 10:59:48;;;;;;;36.47;8.30;;;11.80;99.90;;;;;;5031204;28;20048;-62
2021/12/30 11:02:22;;;;;;;42.40;7.93;;;11.80;99.90;;;;;;5036947;28;20555;-62
2021/12/30 11:04:50;;;;;;;37.90;6.90;;;11.80;99.90;;;;;;5051965;28;20044;-63
2021/12/30 11:07:20;;;;;;;43.65;8.02;;;11.90;99.90;;;;;;5052775;28;20417;-61
2021/12/30 11:09:55;;;;;;;69.18;24.88;;;11.90;99.90;;;;;;5018021;28;20857;-61
2021/12/30 11:12:32;;;;;;;48.15;9.13;;;11.90;99.90;;;;;;5077546;22;20053;-83
2021/12/30 11:15:05;;;;;;;46.15;9.82;;;11.90;99.90;;;;;;5042074;28;20113;-82
2021/12/30 11:17:36;;;;;;;42.22;8.52;;;11.90;99.90;;;;;;5032494;28;20416;-81
2021/12/30 11:20:06;;;;;;;49.50;8.32;;;11.90;99.90;;;;;;5049718;28;20485;-82
2021/12/30 11:22:35;;;;;;;45.28;8.57;;;11.90;99.90;;;;;;5033243;28;20909;-78
2021/12/30 11:25:05;;;;;;;45.30;8.55;;;11.90;99.90;;;;;;5000818;28;20116;-81
2021/12/30 11:27:32;;;;;;;41.17;8.48;;;11.90;99.90;;;;;;5023398;28;20045;-81
2021/12/30 11:30:19;;;;;;;43.15;8.38;;;11.90;99.90;;;;;;5007104;28;20041;-81
2021/12/30 11:32:49;;;;;;;42.20;8.15;;;11.90;99.90;;;;;;5032560;28;20489;-81
2021/12/30 11:35:19;;;;;;;44.90;7.95;;;11.90;99.90;;;;;;5014421;28;20102;-80
2021/12/30 11:37:45;;;;;;;44.08;8.15;;;11.90;99.90;;;;;;5004589;28;20049;-84
2021/12/30 11:40:18;;;;;;;45.00;8.90;;;11.80;99.90;;;;;;4986008;28;20429;-81
2021/12/30 11:42:47;;;;;;;39.38;9.32;;;11.90;99.90;;;;;;5007622;28;20393;-84
2021/12/30 11:45:24;;;;;;;47.70;9.02;;;11.90;99.90;;;;;;5025886;28;20037;-83
2021/12/30 11:47:50;;;;;;;44.83;8.50;;;11.90;99.90;;;;;;5012071;28;20052;-84
2021/12/30 11:50:38;;;;;;;42.20;9.55;;;11.90;99.90;;;;;;5010168;28;20086;-85
2021/12/30 11:53:24;;;;;;;41.20;8.95;;;11.90;99.90;;;;;;5021643;28;20071;-85
2021/12/30 11:55:56;;;;;;;44.80;8.60;;;11.90;99.90;;;;;;5025259;28;20068;-85
2021/12/30 11:59:10;;;;;;;41.50;8.57;;;11.90;99.90;;;;;;5011410;28;20098;-82
2021/12/30 12:10:20;;;;;;;;;;;;;;;;;;;;;
2021/12/30 12:13:55;;;;;;;45.80;8.57;;;11.90;99.90;;;;;;4910822;28;20061;-83
2021/12/30 12:16:59;;;;;;;32.22;9.43;;;11.90;99.90;;;;;;4952259;28;20062;-82
2021/12/30 12:20:09;;;;;;;43.67;7.17;;;12.00;99.90;;;;;;5007506;28;20072;-82
2021/12/30 12:22:37;;;;;;;38.28;8.35;;;11.90;99.90;;;;;;5044521;28;20036;-83
2021/12/30 12:25:09;;;;;;;40.35;8.38;;;12.00;99.90;;;;;;5024010;28;20056;-82
2021/12/30 12:27:49;;;;;;;41.40;7.68;;;12.00;99.90;;;;;;5026171;28;20037;-82
2021/12/30 12:31:08;;;;;;;;;;;;;;;;;;;;;
2021/12/30 12:33:34;;;;;;;51.92;10.00;;;12.00;99.90;;;;;;5080859;22;20056;-56
2021/12/30 12:36:07;;;;;;;39.38;7.50;;;12.00;99.90;;;;;;5054931;28;20055;-57
2021/12/30 12:38:50;;;;;;;39.20;8.63;;;12.10;99.90;;;;;;5026538;28;20032;-60
2021/12/30 12:41:18;;;;;;;36.22;7.22;;;12.00;99.90;;;;;;5057081;28;20490;-58
2021/12/30 12:43:44;;;;;;;38.80;7.68;;;12.10;99.90;;;;;;5057066;28;20388;-57
2021/12/30 12:46:10;;;;;;;34.50;6.85;;;12.00;99.90;;;;;;5062399;28;20084;-58
2021/12/30 12:48:41;;;;;;;38.13;7.43;;;12.10;99.90;;;;;;5076832;28;20490;-57
2021/12/30 12:51:25;;;;;;;44.47;9.73;;;12.10;99.90;;;;;;5061988;28;20082;-58
2021/12/30 12:54:03;;;;;;;30.70;6.80;;;12.10;99.90;;;;;;5042389;28;20479;-57
2021/12/30 12:56:40;;;;;;;29.70;6.90;;;12.10;99.90;;;;;;5043629;28;20510;-59